Blanc-Sablon, Canada
Current Conditions -  °F | °C
As of 1:00 PM on Thursday 23 Oct 2014 (Local Time) from CYBX Reporting Station
Few Clouds Few Clouds  
Wind Chill: 38°   Ceiling: Unl
Heat Index: 45°   Visibility: 15mi
Dew Point: 34°   Wind: 15mph
Humidity: 66%   Direction: 250°WSW
Pressure: 30.26"   Gusts: NA
Location:  51.43°N, 57.12°W
Report Text: CYBX 231600Z 25013KT 15SM FEW220 07/01 A3026 RMK CI1 TR CISLP249
Loading
Personal Weather Stations






























Interactive Weather Map
Tropical Storm Tracking
New forecast layout! Learn more

10-Day Weather Forecast

Advertisements
Track Severe Weather on mobile